Time;durP1;ratioP1;P1;durP2;ratioP2;P2;SDS_P1;SDS_P2;PMS_P1;PMS_P2;Temp;Humidity;BMP_temperature;BMP_pressure;BME280_temperature;BME280_humidity;BME280_pressure;Samples;Min_cycle;Max_cycle;Signal;HPM_P1;HPM_P2
2022/12/12 00:01:24;;;;;;;6.93;4.97;;;-0.10;74.70;;;;;;5003753;28;20433;-63
2022/12/12 00:03:51;;;;;;;6.40;5.07;;;-0.10;75.00;;;;;;5033172;28;20429;-63
2022/12/12 00:06:17;;;;;;;7.30;5.50;;;-0.20;76.30;;;;;;5031254;28;20426;-63
2022/12/12 00:08:43;;;;;;;5.73;4.77;;;-0.20;76.20;;;;;;4999622;28;20457;-63
2022/12/12 00:11:09;;;;;;;6.90;4.70;;;-0.20;76.10;;;;;;5022058;28;20521;-62
2022/12/12 00:13:35;;;;;;;8.57;5.27;;;-0.20;76.10;;;;;;5012779;28;20191;-63
2022/12/12 00:16:03;;;;;;;6.87;5.03;;;-0.20;76.40;;;;;;5036544;28;20588;-62
2022/12/12 00:18:29;;;;;;;7.07;5.27;;;-0.20;76.70;;;;;;5011059;28;21006;-62
2022/12/12 00:20:56;;;;;;;7.33;5.33;;;-0.20;77.00;;;;;;5009294;28;20431;-62
2022/12/12 00:23:23;;;;;;;7.87;5.97;;;-0.30;77.50;;;;;;5028297;28;20220;-64
2022/12/12 00:25:59;;;;;;;6.83;4.87;;;-0.30;78.50;;;;;;5030560;28;20517;-63
2022/12/12 00:28:25;;;;;;;6.30;5.07;;;-0.30;77.80;;;;;;5034491;28;20469;-62
2022/12/12 00:30:51;;;;;;;10.97;6.17;;;-0.30;77.70;;;;;;5026745;28;20579;-63
2022/12/12 00:33:17;;;;;;;7.80;5.67;;;-0.30;78.60;;;;;;5007931;28;20478;-63
2022/12/12 00:35:43;;;;;;;7.33;4.93;;;-0.40;79.40;;;;;;5032769;28;20194;-63
2022/12/12 00:38:10;;;;;;;8.10;6.13;;;-0.40;78.80;;;;;;5034832;28;20516;-63
2022/12/12 00:40:36;;;;;;;8.10;5.67;;;-0.40;79.00;;;;;;5025353;28;20434;-62
2022/12/12 00:43:02;;;;;;;7.63;5.27;;;-0.40;78.90;;;;;;5022729;28;20441;-62
2022/12/12 00:45:27;;;;;;;8.03;6.13;;;-0.40;78.90;;;;;;5032347;28;20236;-62
2022/12/12 00:47:53;;;;;;;5.90;5.07;;;-0.50;79.00;;;;;;5022647;28;20441;-62
2022/12/12 00:50:19;;;;;;;8.27;5.60;;;-0.50;78.80;;;;;;5002818;28;20215;-62
2022/12/12 00:52:44;;;;;;;7.67;5.70;;;-0.50;78.60;;;;;;5016301;28;20187;-63
2022/12/12 00:55:11;;;;;;;8.37;6.10;;;-0.60;78.90;;;;;;5002410;28;20191;-62
2022/12/12 00:57:37;;;;;;;7.30;5.80;;;-0.60;79.00;;;;;;5018927;28;20187;-63
2022/12/12 01:00:05;;;;;;;8.27;5.57;;;-0.70;78.90;;;;;;5004688;28;20452;-62
2022/12/12 01:02:30;;;;;;;7.00;5.23;;;-0.70;79.20;;;;;;5015223;28;20272;-63
2022/12/12 01:04:56;;;;;;;9.23;6.10;;;-0.70;79.30;;;;;;4997655;28;20601;-62
2022/12/12 01:07:22;;;;;;;8.03;6.03;;;-0.80;79.60;;;;;;5018004;28;20191;-62
2022/12/12 01:09:48;;;;;;;7.37;5.00;;;-0.90;79.60;;;;;;5020148;28;20284;-62
2022/12/12 01:12:13;;;;;;;8.63;5.70;;;-0.90;79.70;;;;;;5003261;28;20510;-62
2022/12/12 01:14:39;;;;;;;8.87;5.70;;;-0.90;79.60;;;;;;5010286;28;20208;-63
2022/12/12 01:17:05;;;;;;;10.73;6.40;;;-1.00;79.70;;;;;;5050559;28;20197;-63
2022/12/12 01:19:30;;;;;;;8.63;5.40;;;-1.00;79.80;;;;;;5018349;28;20196;-63
2022/12/12 01:21:56;;;;;;;6.93;5.63;;;-1.00;79.60;;;;;;5031425;28;20199;-63
2022/12/12 01:24:22;;;;;;;8.87;5.77;;;-1.00;79.80;;;;;;5000639;28;20213;-63
2022/12/12 01:26:48;;;;;;;7.67;5.80;;;-1.10;79.90;;;;;;5021712;28;20193;-63
2022/12/12 01:29:13;;;;;;;7.00;5.97;;;-1.10;80.30;;;;;;5032835;28;20570;-63
2022/12/12 01:31:39;;;;;;;9.70;6.23;;;-1.10;80.50;;;;;;5022374;28;20260;-63
2022/12/12 01:34:04;;;;;;;8.20;5.63;;;-1.10;80.60;;;;;;5007804;28;20185;-63
2022/12/12 01:36:30;;;;;;;11.50;5.70;;;-1.20;80.30;;;;;;5025313;28;20194;-63
2022/12/12 01:38:56;;;;;;;6.73;4.70;;;-1.30;80.40;;;;;;4995565;28;20194;-63
2022/12/12 01:41:22;;;;;;;7.50;5.53;;;-1.30;80.30;;;;;;5029698;28;20187;-63
2022/12/12 01:43:49;;;;;;;7.83;6.23;;;-1.30;80.40;;;;;;5034560;28;20192;-63
2022/12/12 01:46:20;;;;;;;8.17;5.87;;;-1.30;80.80;;;;;;5034947;28;20488;-63
2022/12/12 01:48:53;;;;;;;8.03;5.97;;;-1.40;80.70;;;;;;5034548;28;20433;-63
2022/12/12 01:51:22;;;;;;;7.47;5.13;;;-1.50;80.70;;;;;;5032041;28;20476;-64
2022/12/12 01:53:50;;;;;;;10.67;6.57;;;-1.50;80.80;;;;;;5034845;28;20529;-64
2022/12/12 01:56:19;;;;;;;9.60;6.43;;;-1.50;81.00;;;;;;5015479;28;20452;-64
2022/12/12 01:58:47;;;;;;;11.57;8.37;;;-1.50;81.20;;;;;;5040168;28;20426;-63
2022/12/12 02:01:14;;;;;;;8.10;6.60;;;-1.50;81.80;;;;;;5026182;28;20430;-62
2022/12/12 02:03:41;;;;;;;9.10;6.70;;;-1.60;82.00;;;;;;5036871;28;20438;-62
2022/12/12 02:06:12;;;;;;;10.00;6.17;;;-1.60;81.80;;;;;;5030759;28;20417;-63
2022/12/12 02:08:39;;;;;;;8.37;6.80;;;-1.60;81.70;;;;;;5021786;28;20434;-63
2022/12/12 02:11:05;;;;;;;9.27;6.43;;;-1.70;81.90;;;;;;5034368;28;20470;-63
2022/12/12 02:13:33;;;;;;;10.53;6.70;;;-1.70;82.00;;;;;;5022232;28;20440;-63
2022/12/12 02:16:28;;;;;;;12.47;6.60;;;-1.70;82.20;;;;;;5017709;28;20455;-63
2022/12/12 02:19:04;;;;;;;9.43;6.97;;;-1.70;82.50;;;;;;5030912;28;20566;-63
2022/12/12 02:21:42;;;;;;;9.13;6.83;;;-1.70;82.60;;;;;;5038286;28;20454;-63
2022/12/12 02:24:39;;;;;;;8.33;6.00;;;-1.80;82.70;;;;;;5023945;28;20501;-63
2022/12/12 02:27:20;;;;;;;7.23;5.67;;;-1.90;82.70;;;;;;5033079;28;20446;-63
2022/12/12 02:30:21;;;;;;;9.57;6.80;;;-1.90;82.50;;;;;;5024825;28;20431;-63
2022/12/12 02:33:10;;;;;;;10.33;7.43;;;-1.90;82.60;;;;;;5033806;28;20434;-63
2022/12/12 02:36:11;;;;;;;10.20;6.67;;;-1.90;82.90;;;;;;5028296;28;20450;-63
2022/12/12 02:38:51;;;;;;;11.30;7.03;;;-1.90;82.80;;;;;;5016248;28;20417;-63
2022/12/12 02:41:38;;;;;;;8.37;6.53;;;-1.90;82.90;;;;;;5021242;28;20423;-63
2022/12/12 02:44:15;;;;;;;8.90;6.10;;;-1.90;83.10;;;;;;5028502;28;20469;-62
2022/12/12 02:47:00;;;;;;;8.80;6.43;;;-1.90;83.00;;;;;;5033324;28;20435;-64
2022/12/12 02:49:52;;;;;;;10.70;7.33;;;-2.00;83.00;;;;;;5032402;28;20419;-64
2022/12/12 02:52:18;;;;;;;9.03;6.40;;;-2.00;83.00;;;;;;5021801;28;20436;-63
2022/12/12 02:54:44;;;;;;;10.43;6.70;;;-2.10;83.20;;;;;;5019468;28;20440;-63
2022/12/12 02:57:22;;;;;;;10.30;7.67;;;-2.10;83.20;;;;;;4986184;28;20449;-63
2022/12/12 02:59:55;;;;;;;8.10;6.00;;;-2.10;83.20;;;;;;5033243;28;20214;-64
2022/12/12 03:02:29;;;;;;;9.87;6.53;;;-2.20;83.40;;;;;;5030528;28;20430;-62
2022/12/12 03:08:07;;;;;;;10.83;6.20;;;-2.10;83.40;;;;;;5038450;28;20465;-64
2022/12/12 03:10:53;;;;;;;7.00;5.73;;;-2.10;83.40;;;;;;5033030;28;20458;-63
2022/12/12 03:13:49;;;;;;;10.17;6.60;;;-2.10;83.20;;;;;;5033012;28;20415;-63
2022/12/12 03:16:31;;;;;;;8.93;6.60;;;-2.10;83.30;;;;;;5040506;28;20427;-63
2022/12/12 03:19:12;;;;;;;7.20;5.50;;;-2.10;83.20;;;;;;5032118;28;20438;-64
2022/12/12 03:21:50;;;;;;;9.97;6.53;;;-2.10;83.20;;;;;;5032581;28;20513;-63
2022/12/12 03:24:29;;;;;;;10.00;6.57;;;-2.20;83.40;;;;;;5030448;28;20429;-63
2022/12/12 03:27:00;;;;;;;7.83;5.97;;;-2.30;83.70;;;;;;5032715;28;20438;-63
2022/12/12 03:30:12;;;;;;;8.97;5.77;;;-2.30;83.90;;;;;;5022673;28;20406;-63
2022/12/12 03:32:51;;;;;;;6.63;4.80;;;-2.30;83.50;;;;;;5017682;28;20463;-63
2022/12/12 03:35:43;;;;;;;8.33;5.13;;;-2.30;83.00;;;;;;5033475;28;20427;-63
2022/12/12 03:38:28;;;;;;;7.17;5.17;;;-2.30;83.00;;;;;;5044537;28;20485;-63
2022/12/12 03:40:57;;;;;;;10.50;6.03;;;-2.30;82.90;;;;;;5026144;28;20427;-64
2022/12/12 03:43:30;;;;;;;7.30;5.60;;;-2.30;82.70;;;;;;5031330;28;20467;-64
2022/12/12 03:46:19;;;;;;;8.70;6.03;;;-2.20;83.40;;;;;;5033339;28;20899;-64
2022/12/12 03:48:56;;;;;;;8.73;6.33;;;-2.20;83.50;;;;;;5023774;28;20419;-64
2022/12/12 03:51:49;;;;;;;10.20;7.60;;;-2.20;83.80;;;;;;5026854;28;20493;-64
2022/12/12 03:54:26;;;;;;;11.20;8.07;;;-2.10;84.10;;;;;;5031355;28;20427;-63
2022/12/12 03:57:05;;;;;;;12.90;9.33;;;-2.10;84.10;;;;;;5032469;28;20514;-63
2022/12/12 03:59:34;;;;;;;12.77;8.27;;;-2.10;84.00;;;;;;5053586;28;20423;-63
2022/12/12 04:02:10;;;;;;;12.83;9.17;;;-2.10;83.80;;;;;;5032273;28;20426;-64
2022/12/12 04:04:47;;;;;;;14.30;9.83;;;-2.10;84.00;;;;;;5033171;28;20427;-63
2022/12/12 04:07:23;;;;;;;12.37;8.43;;;-2.10;84.00;;;;;;5042408;28;20588;-63
2022/12/12 04:13:00;;;;;;;10.10;7.00;;;-2.20;83.70;;;;;;5024538;28;20461;-63
2022/12/12 04:15:25;;;;;;;11.47;7.70;;;-2.20;83.00;;;;;;5021648;28;20439;-64
2022/12/12 04:18:12;;;;;;;11.03;7.20;;;-2.30;82.60;;;;;;5027753;28;20430;-65
2022/12/12 04:23:49;;;;;;;12.20;7.30;;;-2.50;82.80;;;;;;5026722;28;20442;-65
2022/12/12 04:26:41;;;;;;;10.13;6.90;;;-2.60;82.70;;;;;;5025145;28;20427;-64
2022/12/12 04:29:32;;;;;;;11.10;7.80;;;-2.60;82.60;;;;;;5025855;28;21011;-64
2022/12/12 04:32:13;;;;;;;9.93;7.53;;;-2.60;82.50;;;;;;5019854;28;20465;-64
2022/12/12 04:35:04;;;;;;;10.03;7.80;;;-2.60;82.60;;;;;;5023561;28;20424;-64
2022/12/12 04:37:34;;;;;;;12.50;8.13;;;-2.70;82.70;;;;;;5024501;28;20427;-64
2022/12/12 04:40:04;;;;;;;14.17;8.40;;;-2.80;83.20;;;;;;5032499;28;20517;-65
2022/12/12 04:42:44;;;;;;;13.07;8.93;;;-2.90;83.70;;;;;;5030875;28;20458;-65
2022/12/12 04:45:15;;;;;;;13.33;8.93;;;-2.90;83.70;;;;;;5032955;28;20474;-64
2022/12/12 04:47:44;;;;;;;15.70;9.93;;;-2.90;83.40;;;;;;5022829;28;20511;-64
2022/12/12 04:50:11;;;;;;;9.73;7.33;;;-2.90;83.50;;;;;;5021684;28;20558;-64
2022/12/12 04:52:39;;;;;;;8.43;6.83;;;-3.00;83.70;;;;;;5029706;28;20957;-64
2022/12/12 04:55:11;;;;;;;11.23;7.27;;;-3.00;82.90;;;;;;5011990;28;20514;-64
2022/12/12 04:57:47;;;;;;;10.83;7.17;;;-3.10;82.60;;;;;;5030261;28;20477;-64
2022/12/12 05:00:13;;;;;;;8.37;6.20;;;-3.10;83.00;;;;;;5030386;28;20464;-63
2022/12/12 05:02:48;;;;;;;12.20;7.73;;;-3.10;82.70;;;;;;5001218;28;20534;-64
2022/12/12 05:05:24;;;;;;;10.40;6.87;;;-3.10;82.90;;;;;;5039596;28;21007;-63
2022/12/12 05:07:56;;;;;;;10.67;6.73;;;-3.20;82.90;;;;;;5024705;28;20435;-64
2022/12/12 05:10:22;;;;;;;7.77;5.97;;;-3.20;83.10;;;;;;5023776;28;20473;-63
2022/12/12 05:12:51;;;;;;;9.73;7.23;;;-3.20;83.20;;;;;;5026249;28;20422;-63
2022/12/12 05:15:19;;;;;;;8.10;6.40;;;-3.20;83.20;;;;;;5029413;28;20457;-63
2022/12/12 05:17:57;;;;;;;8.43;5.67;;;-3.30;83.20;;;;;;5033668;28;20426;-64
2022/12/12 05:20:23;;;;;;;10.90;6.90;;;-3.20;82.90;;;;;;5034405;28;20469;-64
2022/12/12 05:22:48;;;;;;;8.33;6.97;;;-3.20;83.00;;;;;;5013719;28;20482;-64
2022/12/12 05:25:14;;;;;;;9.10;6.63;;;-3.30;82.90;;;;;;5012239;28;20196;-64
2022/12/12 05:27:40;;;;;;;11.27;6.93;;;-3.40;83.30;;;;;;5027963;28;20556;-65
2022/12/12 05:30:06;;;;;;;9.77;6.63;;;-3.40;83.00;;;;;;5013551;28;20213;-64
2022/12/12 05:32:32;;;;;;;8.00;5.97;;;-3.40;82.80;;;;;;5020321;28;20231;-66
2022/12/12 05:34:58;;;;;;;9.20;7.00;;;-3.40;82.70;;;;;;5014261;28;20463;-64
2022/12/12 05:37:24;;;;;;;7.87;5.70;;;-3.40;82.70;;;;;;5018404;28;20198;-64
2022/12/12 05:39:49;;;;;;;7.63;5.70;;;-3.40;82.60;;;;;;5000759;28;20469;-65
2022/12/12 05:42:15;;;;;;;7.87;5.30;;;-3.50;82.50;;;;;;5019051;28;20184;-62
2022/12/12 05:44:41;;;;;;;7.97;6.17;;;-3.50;82.50;;;;;;5002380;28;20274;-63
2022/12/12 05:47:07;;;;;;;7.13;5.17;;;-3.50;82.60;;;;;;5018217;28;20220;-63
2022/12/12 05:49:33;;;;;;;7.40;5.23;;;-3.50;82.20;;;;;;5015338;28;20481;-63
2022/12/12 05:51:58;;;;;;;8.63;5.23;;;-3.60;82.10;;;;;;4997755;28;20521;-63
2022/12/12 05:54:24;;;;;;;9.00;5.57;;;-3.60;82.10;;;;;;4983436;28;20243;-63
2022/12/12 05:56:50;;;;;;;7.50;5.03;;;-3.60;82.10;;;;;;5024092;28;20248;-63
2022/12/12 05:59:16;;;;;;;8.83;5.73;;;-3.60;82.20;;;;;;5017946;28;20199;-65
2022/12/12 06:01:41;;;;;;;7.83;5.37;;;-3.60;82.20;;;;;;5007150;28;20288;-66
2022/12/12 06:04:07;;;;;;;6.67;5.00;;;-3.60;82.20;;;;;;5002419;28;20252;-65
2022/12/12 06:06:33;;;;;;;6.93;5.10;;;-3.60;81.80;;;;;;5010639;28;20347;-64
2022/12/12 06:08:58;;;;;;;9.97;5.43;;;-3.60;81.50;;;;;;4995440;28;20200;-64
2022/12/12 06:11:24;;;;;;;7.50;4.97;;;-3.50;82.50;;;;;;5014122;28;20226;-64
2022/12/12 06:13:49;;;;;;;6.73;4.77;;;-3.40;80.80;;;;;;5010128;28;20273;-64
2022/12/12 06:16:18;;;;;;;6.73;4.70;;;-3.40;81.00;;;;;;4997857;28;20222;-65
2022/12/12 06:18:48;;;;;;;7.23;4.10;;;-3.30;80.50;;;;;;5028830;28;20202;-64
2022/12/12 06:21:14;;;;;;;7.00;4.17;;;-3.40;79.70;;;;;;5029481;28;20431;-64
2022/12/12 06:23:41;;;;;;;5.83;4.43;;;-3.50;80.30;;;;;;5009946;28;20941;-65
2022/12/12 06:26:09;;;;;;;7.13;3.80;;;-3.50;79.60;;;;;;5030075;28;20268;-64
2022/12/12 06:28:36;;;;;;;6.57;5.13;;;-3.40;79.70;;;;;;5025819;28;20506;-65
2022/12/12 06:31:02;;;;;;;7.87;5.30;;;-3.40;79.40;;;;;;5009317;28;20455;-64
2022/12/12 06:33:30;;;;;;;7.60;5.37;;;-3.40;78.70;;;;;;5016055;28;20438;-64
2022/12/12 06:36:00;;;;;;;12.63;6.93;;;-3.40;79.10;;;;;;5020033;28;20455;-63
2022/12/12 06:38:26;;;;;;;13.90;9.03;;;-3.50;79.80;;;;;;5016912;28;20451;-63
2022/12/12 06:40:51;;;;;;;14.63;7.93;;;-3.50;78.60;;;;;;5041261;28;20518;-63
2022/12/12 06:43:17;;;;;;;11.67;7.20;;;-3.60;78.50;;;;;;5024612;28;20454;-63
2022/12/12 06:45:43;;;;;;;9.07;5.77;;;-3.60;79.10;;;;;;5030855;28;20237;-64
2022/12/12 06:48:08;;;;;;;10.03;6.37;;;-3.60;78.60;;;;;;5015894;28;20206;-64
2022/12/12 06:50:38;;;;;;;10.57;5.83;;;-3.60;78.60;;;;;;5015580;28;20224;-64
2022/12/12 06:53:04;;;;;;;7.47;5.63;;;-3.60;79.00;;;;;;5026803;28;20185;-64
2022/12/12 06:55:30;;;;;;;9.23;5.80;;;-3.60;79.00;;;;;;5007317;28;20438;-64
2022/12/12 06:57:55;;;;;;;10.00;5.53;;;-3.80;79.10;;;;;;5017949;28;20199;-64
2022/12/12 07:00:21;;;;;;;8.70;6.17;;;-3.80;79.30;;;;;;5031619;28;20196;-64
2022/12/12 07:02:47;;;;;;;11.40;5.70;;;-3.80;79.60;;;;;;5015605;28;20199;-63
2022/12/12 07:05:12;;;;;;;7.73;5.57;;;-3.80;79.40;;;;;;5033760;28;20274;-65
2022/12/12 07:07:38;;;;;;;6.70;4.07;;;-3.80;79.20;;;;;;5028739;28;20224;-64
2022/12/12 07:10:04;;;;;;;7.27;4.73;;;-3.80;79.50;;;;;;5017328;28;20221;-64
2022/12/12 07:12:30;;;;;;;7.37;4.50;;;-3.90;79.60;;;;;;5014308;28;20216;-63
2022/12/12 07:14:55;;;;;;;4.97;4.23;;;-4.00;79.70;;;;;;5016893;28;20459;-64
2022/12/12 07:17:21;;;;;;;6.57;4.47;;;-3.90;79.70;;;;;;5016221;28;20184;-64
2022/12/12 07:19:47;;;;;;;7.13;4.20;;;-3.90;79.60;;;;;;5010192;28;20192;-64
2022/12/12 07:22:12;;;;;;;5.60;3.90;;;-3.90;79.50;;;;;;5023768;28;20192;-64
2022/12/12 07:24:38;;;;;;;6.43;3.83;;;-3.90;79.60;;;;;;5013757;28;20230;-65
2022/12/12 07:27:04;;;;;;;6.40;4.13;;;-3.80;79.40;;;;;;5029622;28;20199;-65
2022/12/12 07:29:30;;;;;;;4.97;3.70;;;-3.80;79.20;;;;;;5016480;28;20187;-65
2022/12/12 07:31:56;;;;;;;6.90;4.27;;;-3.80;79.00;;;;;;5022096;28;20474;-66
2022/12/12 07:34:21;;;;;;;7.00;3.77;;;-3.90;79.50;;;;;;5013308;28;20179;-66
2022/12/12 07:36:48;;;;;;;7.37;3.87;;;-3.80;79.50;;;;;;5000920;28;20330;-67
2022/12/12 07:39:14;;;;;;;6.80;3.50;;;-3.90;79.00;;;;;;5019417;28;20192;-65
2022/12/12 07:41:39;;;;;;;5.90;4.03;;;-3.80;79.20;;;;;;5030750;28;20436;-66
2022/12/12 07:44:05;;;;;;;7.80;3.97;;;-3.80;78.80;;;;;;5012886;28;20479;-64
2022/12/12 07:46:31;;;;;;;6.30;4.03;;;-3.90;79.20;;;;;;5031382;28;20199;-63
2022/12/12 07:48:57;;;;;;;5.10;3.47;;;-3.80;79.20;;;;;;5022307;28;20284;-64
2022/12/12 07:51:22;;;;;;;6.63;4.30;;;-3.80;79.10;;;;;;5025923;28;20246;-64
2022/12/12 07:53:48;;;;;;;7.33;4.20;;;-3.80;79.10;;;;;;5030892;28;20280;-63
2022/12/12 07:56:16;;;;;;;6.40;3.70;;;-3.80;79.30;;;;;;5014644;28;20211;-65
2022/12/12 07:58:42;;;;;;;8.83;4.20;;;-3.70;79.40;;;;;;5028620;28;20191;-65
2022/12/12 08:01:15;;;;;;;10.27;5.17;;;-3.80;79.20;;;;;;5015301;28;20432;-63
2022/12/12 08:03:43;;;;;;;7.70;3.97;;;-3.70;79.30;;;;;;4997680;28;20538;-65
2022/12/12 08:06:09;;;;;;;9.03;5.00;;;-3.70;79.40;;;;;;5015119;28;20434;-64
2022/12/12 08:08:34;;;;;;;11.07;4.90;;;-3.60;79.40;;;;;;5011941;28;20936;-64
2022/12/12 08:11:08;;;;;;;7.23;4.20;;;-3.60;78.90;;;;;;5019516;28;20216;-64
2022/12/12 08:13:35;;;;;;;7.90;4.37;;;-3.60;79.00;;;;;;5021838;28;20185;-63
2022/12/12 08:16:01;;;;;;;6.13;3.70;;;-3.60;77.90;;;;;;5012781;28;20431;-63
2022/12/12 08:18:27;;;;;;;5.47;3.40;;;-3.60;78.30;;;;;;5024727;28;20944;-63
2022/12/12 08:20:53;;;;;;;5.30;4.00;;;-3.50;77.20;;;;;;5042204;28;20419;-64
2022/12/12 08:23:18;;;;;;;4.30;3.53;;;-3.50;77.70;;;;;;5013383;28;20435;-64
2022/12/12 08:25:44;;;;;;;7.83;4.13;;;-3.50;77.30;;;;;;5022471;28;20254;-64
2022/12/12 08:28:10;;;;;;;6.60;4.33;;;-3.50;77.10;;;;;;5022224;28;20643;-64
2022/12/12 08:30:36;;;;;;;16.07;7.47;;;-3.40;77.10;;;;;;5014926;28;20472;-64
2022/12/12 08:33:02;;;;;;;12.13;7.37;;;-3.40;77.00;;;;;;5019768;28;20669;-64
2022/12/12 08:35:29;;;;;;;13.80;7.87;;;-3.40;77.20;;;;;;5042992;28;20198;-64
2022/12/12 08:37:55;;;;;;;9.83;6.70;;;-3.40;77.30;;;;;;5043364;28;20426;-63
2022/12/12 08:40:21;;;;;;;15.13;7.83;;;-3.30;77.50;;;;;;5034065;28;20456;-63
2022/12/12 08:42:46;;;;;;;11.00;7.00;;;-3.30;77.80;;;;;;5034265;28;20437;-63
2022/12/12 08:45:12;;;;;;;14.03;8.43;;;-3.20;77.20;;;;;;5015378;28;20660;-63
2022/12/12 08:47:38;;;;;;;10.97;8.10;;;-3.20;76.50;;;;;;5028384;28;20204;-64
2022/12/12 08:50:04;;;;;;;12.13;6.67;;;-3.20;76.40;;;;;;4999803;28;20223;-64
2022/12/12 08:52:30;;;;;;;9.07;5.90;;;-3.10;76.50;;;;;;5026728;28;20219;-64
2022/12/12 08:54:56;;;;;;;10.33;6.00;;;-3.10;76.60;;;;;;5014931;28;20430;-64
2022/12/12 08:57:22;;;;;;;9.73;5.63;;;-3.00;75.40;;;;;;4998753;28;20193;-64
2022/12/12 08:59:47;;;;;;;7.80;4.70;;;-2.90;75.20;;;;;;5030065;28;20189;-64
2022/12/12 09:02:13;;;;;;;7.53;5.03;;;-2.90;74.40;;;;;;4998623;28;20208;-64
2022/12/12 09:04:39;;;;;;;15.97;4.87;;;-2.80;74.40;;;;;;5016872;28;20197;-64
2022/12/12 09:07:05;;;;;;;6.27;4.30;;;-2.80;74.40;;;;;;5018243;28;20215;-63
2022/12/12 09:09:31;;;;;;;6.23;3.83;;;-2.70;74.30;;;;;;5030939;28;20189;-63
2022/12/12 09:11:57;;;;;;;6.50;4.10;;;-2.70;71.20;;;;;;5014865;28;21029;-64
2022/12/12 09:14:23;;;;;;;6.00;4.23;;;-2.60;70.70;;;;;;5018330;28;20427;-64
2022/12/12 09:16:49;;;;;;;5.23;3.70;;;-2.50;71.50;;;;;;5032295;28;20191;-64
2022/12/12 09:19:15;;;;;;;7.60;4.60;;;-2.40;71.60;;;;;;5018359;28;20424;-64
2022/12/12 09:21:41;;;;;;;5.50;3.70;;;-2.40;70.10;;;;;;5018229;28;20196;-64
2022/12/12 09:24:07;;;;;;;9.03;4.80;;;-2.30;67.90;;;;;;5021311;28;20480;-66
2022/12/12 09:26:33;;;;;;;8.90;4.47;;;-2.20;67.70;;;;;;5041871;28;20196;-64
2022/12/12 09:28:59;;;;;;;5.53;3.53;;;-2.20;68.70;;;;;;5021304;28;20431;-64
2022/12/12 09:31:25;;;;;;;8.30;3.83;;;-2.10;68.70;;;;;;5033786;28;20219;-64
2022/12/12 09:33:50;;;;;;;6.50;4.20;;;-2.10;68.00;;;;;;5014217;28;20184;-63
2022/12/12 09:36:17;;;;;;;4.43;3.67;;;-2.00;66.90;;;;;;5035034;28;20204;-64
2022/12/12 09:38:43;;;;;;;5.33;4.10;;;-1.90;65.10;;;;;;5022662;28;20215;-64
2022/12/12 09:41:08;;;;;;;7.27;4.33;;;-1.90;65.40;;;;;;5026145;28;20431;-65
2022/12/12 09:43:53;;;;;;;8.00;4.40;;;-1.80;65.10;;;;;;5033648;28;20191;-65
2022/12/12 09:46:47;;;;;;;8.50;4.57;;;-1.70;64.00;;;;;;5025052;28;20684;-64
2022/12/12 09:49:35;;;;;;;7.63;4.00;;;-1.70;64.20;;;;;;5030887;28;20466;-65
2022/12/12 09:52:01;;;;;;;4.57;3.70;;;-1.60;64.30;;;;;;5035762;28;20470;-65
2022/12/12 09:54:27;;;;;;;5.13;3.23;;;-1.60;64.10;;;;;;5048689;28;20435;-65
2022/12/12 09:57:20;;;;;;;6.57;4.30;;;-1.50;64.30;;;;;;5019393;28;20443;-64
2022/12/12 10:00:08;;;;;;;5.40;3.90;;;-1.50;61.60;;;;;;5023085;28;20419;-63
2022/12/12 10:03:16;;;;;;;7.90;5.20;;;-1.30;61.40;;;;;;5033267;28;20438;-63
2022/12/12 10:06:02;;;;;;;8.17;5.43;;;-1.30;62.30;;;;;;5046609;28;20457;-63
2022/12/12 10:08:36;;;;;;;4.87;4.23;;;-1.30;62.30;;;;;;5021650;28;20439;-63
2022/12/12 10:11:48;;;;;;;5.67;3.80;;;-1.10;62.80;;;;;;5033407;28;20475;-63
2022/12/12 10:13:55;;;;;;;5.27;3.63;;;-1.10;57.80;;;;;;5034433;28;20463;-64
2022/12/12 10:16:21;;;;;;;6.03;3.90;;;-1.00;57.90;;;;;;5033484;28;20462;-63
2022/12/12 10:18:50;;;;;;;5.83;3.97;;;-0.90;57.10;;;;;;5033295;28;20431;-63
2022/12/12 10:21:25;;;;;;;9.43;3.80;;;-0.80;54.50;;;;;;5033354;28;20431;-64
2022/12/12 10:24:03;;;;;;;3.10;2.40;;;-0.70;54.80;;;;;;5033048;28;20426;-64
2022/12/12 10:26:30;;;;;;;3.40;2.63;;;-0.70;54.80;;;;;;5032413;28;20444;-65
2022/12/12 10:29:09;;;;;;;3.97;2.50;;;-0.60;55.10;;;;;;5033300;28;20487;-65
2022/12/12 10:31:53;;;;;;;6.90;2.97;;;-0.60;55.80;;;;;;5032202;28;20512;-67
2022/12/12 10:34:40;;;;;;;4.97;2.60;;;-0.50;53.30;;;;;;5033493;28;20422;-64
2022/12/12 10:37:08;;;;;;;4.07;2.83;;;-0.50;55.20;;;;;;5037801;28;20431;-63
2022/12/12 10:39:52;;;;;;;4.77;2.60;;;-0.40;55.30;;;;;;5049232;28;20433;-66
2022/12/12 10:42:32;;;;;;;5.93;3.00;;;-0.40;54.50;;;;;;5033494;28;20425;-65
2022/12/12 10:45:04;;;;;;;3.77;2.53;;;-0.30;54.00;;;;;;5032996;28;20983;-64
2022/12/12 10:47:30;;;;;;;5.40;3.67;;;-0.20;51.60;;;;;;5032549;28;20425;-64
2022/12/12 10:50:12;;;;;;;3.93;3.30;;;-0.20;54.00;;;;;;5016963;28;20910;-63
2022/12/12 10:52:38;;;;;;;11.13;4.97;;;-0.10;54.20;;;;;;5055673;28;20427;-64
2022/12/12 10:55:33;;;;;;;8.87;5.23;;;0.00;54.70;;;;;;5029817;28;20450;-64
2022/12/12 10:58:02;;;;;;;7.37;4.70;;;0.00;53.20;;;;;;5012551;28;20241;-64
2022/12/12 11:00:40;;;;;;;7.77;4.40;;;0.00;53.00;;;;;;5029311;28;20498;-64
2022/12/12 11:03:30;;;;;;;9.23;4.27;;;0.00;53.20;;;;;;5038573;28;20452;-64
2022/12/12 11:05:57;;;;;;;10.33;4.00;;;0.10;54.20;;;;;;5031761;28;20437;-64
2022/12/12 11:08:31;;;;;;;8.73;4.33;;;0.20;53.30;;;;;;5012896;28;20453;-64
2022/12/12 11:11:09;;;;;;;7.73;3.60;;;0.20;52.40;;;;;;5044050;28;20487;-64
2022/12/12 11:13:45;;;;;;;7.17;4.10;;;0.30;52.90;;;;;;5032327;28;20440;-64
2022/12/12 11:16:41;;;;;;;6.97;3.73;;;0.30;53.40;;;;;;5032028;28;20516;-65
2022/12/12 11:19:20;;;;;;;5.63;3.87;;;0.40;51.40;;;;;;5024459;28;20438;-65
2022/12/12 11:21:47;;;;;;;4.47;3.30;;;0.40;53.50;;;;;;5029833;28;20978;-67
2022/12/12 11:24:21;;;;;;;4.73;3.40;;;0.50;52.30;;;;;;5013636;28;20477;-63
2022/12/12 11:27:02;;;;;;;4.63;3.60;;;0.50;53.40;;;;;;5044098;28;20564;-64
2022/12/12 11:29:44;;;;;;;7.70;3.07;;;0.50;51.90;;;;;;5030248;28;20426;-64
2022/12/12 11:32:18;;;;;;;4.00;3.13;;;0.60;52.30;;;;;;5028840;28;21026;-64
2022/12/12 11:35:17;;;;;;;3.80;2.90;;;0.60;50.90;;;;;;5030812;28;20428;-64
2022/12/12 11:37:51;;;;;;;8.03;3.13;;;0.70;51.30;;;;;;5030242;28;20434;-64
2022/12/12 11:40:28;;;;;;;6.07;3.37;;;0.80;49.60;;;;;;5046704;28;20426;-64
2022/12/12 11:43:30;;;;;;;2.57;2.20;;;0.80;49.70;;;;;;5031020;28;20452;-64
2022/12/12 11:46:07;;;;;;;2.43;1.90;;;0.80;49.70;;;;;;5030723;28;20482;-64
2022/12/12 11:48:52;;;;;;;3.87;2.37;;;1.00;43.40;;;;;;5029695;28;20426;-64
2022/12/12 11:51:39;;;;;;;3.63;1.83;;;1.10;45.00;;;;;;5025920;28;20465;-64
2022/12/12 11:54:30;;;;;;;2.20;1.47;;;1.10;41.60;;;;;;5031067;28;20561;-64
2022/12/12 11:57:10;;;;;;;3.53;1.20;;;1.20;40.10;;;;;;5014520;28;20438;-64
2022/12/12 12:00:11;;;;;;;1.23;1.13;;;1.30;40.00;;;;;;5040236;28;20422;-64
2022/12/12 12:03:10;;;;;;;1.77;1.37;;;1.30;38.30;;;;;;5020623;28;20417;-64
2022/12/12 12:05:58;;;;;;;3.07;1.20;;;1.40;38.50;;;;;;5030426;28;20437;-64
2022/12/12 12:08:49;;;;;;;2.20;1.40;;;1.40;39.40;;;;;;5029708;28;20427;-63
2022/12/12 12:11:34;;;;;;;2.20;1.13;;;1.30;39.00;;;;;;5035482;28;20466;-63
2022/12/12 12:14:08;;;;;;;3.67;1.43;;;1.20;39.10;;;;;;5035188;28;20428;-63
2022/12/12 12:17:09;;;;;;;1.63;1.30;;;1.20;39.40;;;;;;5035371;28;20431;-63
2022/12/12 12:19:52;;;;;;;2.00;1.40;;;1.20;37.80;;;;;;5038038;28;20497;-64
2022/12/12 12:22:48;;;;;;;2.07;1.17;;;1.20;37.20;;;;;;5035014;28;20948;-63
2022/12/12 12:25:32;;;;;;;3.33;1.40;;;1.30;35.60;;;;;;5035106;28;20496;-63
2022/12/12 12:27:58;;;;;;;2.87;1.30;;;1.30;35.50;;;;;;5034837;28;20440;-64
2022/12/12 12:30:33;;;;;;;3.30;1.50;;;1.20;35.90;;;;;;5034590;28;20560;-63
2022/12/12 12:33:28;;;;;;;1.80;1.27;;;1.20;37.20;;;;;;5034665;28;20179;-63
2022/12/12 12:36:15;;;;;;;2.20;1.20;;;1.20;36.50;;;;;;5016339;28;20446;-63
2022/12/12 12:38:53;;;;;;;2.53;1.00;;;1.20;36.30;;;;;;5035352;28;20421;-64
2022/12/12 12:41:30;;;;;;;1.77;1.33;;;1.20;35.20;;;;;;5032931;28;20444;-63
2022/12/12 12:44:14;;;;;;;3.03;1.77;;;1.30;35.80;;;;;;5035873;28;20439;-63
2022/12/12 12:46:39;;;;;;;2.13;1.23;;;1.30;36.10;;;;;;5042739;28;20438;-64
2022/12/12 12:49:21;;;;;;;6.30;1.30;;;1.40;36.40;;;;;;5034853;28;20434;-63
2022/12/12 12:52:01;;;;;;;10.47;2.13;;;1.50;37.10;;;;;;5031221;28;20306;-62
2022/12/12 12:54:37;;;;;;;1.90;1.23;;;1.60;35.30;;;;;;5045203;28;20430;-62
2022/12/12 12:57:09;;;;;;;2.17;1.43;;;1.60;34.90;;;;;;5032518;28;20425;-62
2022/12/12 12:59:42;;;;;;;1.53;1.33;;;1.50;36.80;;;;;;5022879;28;20435;-63
2022/12/12 13:02:49;;;;;;;2.63;1.57;;;1.50;38.10;;;;;;5033380;28;20978;-64
2022/12/12 13:05:25;;;;;;;1.60;1.30;;;1.40;39.70;;;;;;5051545;28;20444;-64
2022/12/12 13:08:01;;;;;;;1.57;1.23;;;1.40;40.00;;;;;;5034437;28;20432;-63
2022/12/12 13:10:29;;;;;;;1.33;1.23;;;1.40;39.80;;;;;;5033839;28;20479;-63
2022/12/12 13:13:02;;;;;;;4.80;1.00;;;1.40;39.90;;;;;;5030187;28;20466;-63
2022/12/12 13:15:40;;;;;;;2.23;1.63;;;1.40;40.70;;;;;;5044302;28;20441;-63
2022/12/12 13:18:11;;;;;;;3.37;1.27;;;1.40;39.80;;;;;;5025241;28;20517;-63
2022/12/12 13:20:40;;;;;;;1.50;1.23;;;1.50;39.90;;;;;;5033424;28;20428;-63
2022/12/12 13:23:06;;;;;;;2.00;1.20;;;1.60;39.10;;;;;;5025201;28;20485;-63